createdAt,value
2023-02-22T00:01:50.983Z,83.71
2023-02-22T00:04:21.227Z,83.46
2023-02-22T00:06:49.561Z,83.23
2023-02-22T00:09:20.751Z,83.80
2023-02-22T00:11:49.107Z,84.04
2023-02-22T00:14:20.485Z,84.18
2023-02-22T00:16:47.531Z,83.90
2023-02-22T00:19:14.290Z,83.93
2023-02-22T00:21:40.919Z,84.28
2023-02-22T00:24:23.426Z,84.55
2023-02-22T00:26:58.001Z,84.18
2023-02-22T00:29:25.282Z,84.83
2023-02-22T00:31:52.913Z,84.25
2023-02-22T00:34:19.655Z,84.99
2023-02-22T00:36:50.142Z,84.64
2023-02-22T00:39:17.017Z,85.03
2023-02-22T00:41:44.027Z,85.05
2023-02-22T00:44:12.676Z,84.64
2023-02-22T00:46:39.383Z,85.29
2023-02-22T00:49:06.153Z,85.02
2023-02-22T00:51:34.728Z,84.84
2023-02-22T00:54:01.456Z,85.28
2023-02-22T00:56:28.564Z,85.02
2023-02-22T00:58:55.279Z,85.01
2023-02-22T01:01:22.410Z,84.60
2023-02-22T01:03:49.052Z,85.15
2023-02-22T01:06:15.861Z,85.15
2023-02-22T01:08:45.699Z,85.45
2023-02-22T01:11:13.190Z,86.11
2023-02-22T01:13:40.706Z,85.17
2023-02-22T01:16:10.453Z,85.31
2023-02-22T01:18:37.572Z,85.17
2023-02-22T01:21:06.249Z,85.07
2023-02-22T01:23:32.961Z,84.53
2023-02-22T01:25:59.548Z,84.54
2023-02-22T01:28:26.203Z,85.03
2023-02-22T01:30:56.352Z,84.27
2023-02-22T01:33:23.360Z,85.09
2023-02-22T01:35:51.012Z,85.00
2023-02-22T01:38:18.220Z,85.35
2023-02-22T01:40:49.153Z,85.49
2023-02-22T01:43:22.285Z,85.00
2023-02-22T01:46:15.120Z,85.25
2023-02-22T01:49:03.267Z,85.28
2023-02-22T01:51:37.863Z,85.37
2023-02-22T01:54:14.432Z,85.36
2023-02-22T01:57:06.245Z,85.51
2023-02-22T01:59:40.243Z,85.89
2023-02-22T02:02:07.254Z,85.33
2023-02-22T02:04:35.317Z,85.97
2023-02-22T02:07:06.813Z,85.81
2023-02-22T02:09:44.857Z,85.25
2023-02-22T02:12:14.271Z,85.57
2023-02-22T02:14:42.378Z,85.87
2023-02-22T02:17:12.348Z,85.01
2023-02-22T02:19:59.853Z,85.60
2023-02-22T02:22:38.563Z,85.57
2023-02-22T02:25:32.070Z,86.01
2023-02-22T02:28:17.522Z,85.88
2023-02-22T02:31:21.034Z,85.38
2023-02-22T02:33:57.806Z,85.67
2023-02-22T02:36:43.126Z,86.40
2023-02-22T02:39:20.773Z,85.68
2023-02-22T02:41:50.931Z,85.68
2023-02-22T02:44:36.134Z,85.38
2023-02-22T02:47:13.354Z,85.45
2023-02-22T02:49:48.204Z,85.22
2023-02-22T02:52:20.753Z,85.31
2023-02-22T02:54:48.733Z,85.82
2023-02-22T02:57:15.326Z,85.36
2023-02-22T02:59:42.719Z,84.91
2023-02-22T03:02:29.098Z,85.04
2023-02-22T03:05:17.913Z,84.45
2023-02-22T03:07:59.075Z,85.35
2023-02-22T03:11:07.664Z,85.89
2023-02-22T03:14:41.770Z,84.94
2023-02-22T03:17:22.314Z,85.27
2023-02-22T03:19:58.833Z,85.62
2023-02-22T03:22:37.817Z,85.29
2023-02-22T03:25:14.885Z,84.72
2023-02-22T03:27:53.666Z,85.32
2023-02-22T03:30:26.868Z,84.86
2023-02-22T03:33:01.896Z,84.98
2023-02-22T03:35:35.485Z,84.98
2023-02-22T03:38:07.398Z,84.43
2023-02-22T03:40:40.299Z,84.07
2023-02-22T03:43:11.016Z,84.27
2023-02-22T03:45:40.800Z,84.95
2023-02-22T03:48:32.503Z,84.81
2023-02-22T03:51:01.031Z,84.77
2023-02-22T03:53:27.719Z,85.12
2023-02-22T03:55:59.097Z,85.40
2023-02-22T03:58:29.814Z,84.72
2023-02-22T04:00:56.594Z,84.28
2023-02-22T04:03:24.534Z,83.87
2023-02-22T04:05:51.139Z,83.93
